Koombana Bay — 3FYY4 — position and weather

sailwx.info

Track history (hours):
 
Tides and Currents Weather Stations Pressure Air Temp Water Temp Dewpoint Dewpoint Depression Visibility Wind Speed Wind Dir Waves Ship Positions

Koombana Bay

Last reported at 2017-Dec-16 02:40 UTC. Time now 2017-Dec-17 19:47 UTC.
Position N 29°57' W 090°23'.

Length 180 m; draft 7 m.

Type: Cargo ship. MMSI: 371760000.

Date/timePositionNaut miles runAvg speedWind from/ knotsBaromVisibWave heightAir tempDewpointWater temp
2017-Dec-16 02:40N 29°57' W 090°23'1 6.7
2017-Dec-16 02:30N 29°56' W 090°22'229 6.0
2017-Dec-14 12:32N 29°21' W 094°43'114.1
2017-Dec-14 12:29N 29°21' W 094°44'812.5
2017-Dec-14 11:48N 29°27' W 094°50'413.4
2017-Dec-14 11:30N 29°30' W 094°52'612.7
2017-Dec-14 11:00N 29°36' W 094°57'611.6
2017-Dec-14 10:30N 29°41' W 094°59'4 8.1
2017-Dec-14 10:01N 29°44' W 095°02'3 6.5
2017-Dec-14 09:31N 29°45' W 095°06'3 6.3
2017-Dec-14 09:01N 29°44' W 095°09'3 5.3
2017-Dec-14 08:30N 29°44' W 095°12'2 4.9
2017-Dec-14 08:00N 29°43' W 095°15'2 3.8
2017-Dec-14 07:30N 29°44' W 095°17'0 0.0
2017-Dec-14 06:49N 29°44' W 095°17'0 0.0
2017-Dec-14 06:28N 29°44' W 095°17'0 0.0
2017-Dec-14 05:55N 29°44' W 095°17'0 0.0
2017-Dec-14 05:28N 29°44' W 095°17'0 0.0
2017-Dec-14 04:58N 29°44' W 095°17'0 0.0
2017-Dec-14 04:16N 29°44' W 095°17'0 0.0
2017-Dec-14 03:58N 29°44' W 095°17'0 0.0
2017-Dec-14 03:28N 29°44' W 095°17'0 0.0
2017-Dec-14 02:55N 29°44' W 095°17'0 0.0
2017-Dec-14 02:25N 29°44' W 095°17'0 0.0
2017-Dec-14 01:55N 29°44' W 095°17'0 0.0
2017-Dec-14 01:25N 29°44' W 095°17'0 0.0
2017-Dec-14 00:55N 29°44' W 095°17'0 0.0
2017-Dec-14 00:16N 29°44' W 095°17'0 0.0
2017-Dec-13 23:58N 29°44' W 095°17'0 0.0
2017-Dec-13 23:22N 29°44' W 095°17'0 0.0
2017-Dec-13 22:01N 29°44' W 095°17'0 0.0
2017-Dec-13 21:52N 29°44' W 095°17'0 0.0
2017-Dec-13 21:19N 29°44' W 095°17'0 0.0
2017-Dec-13 20:43N 29°44' W 095°17'0 0.0
2017-Dec-13 15:37N 29°44' W 095°17'0 0.0
2017-Dec-13 15:19N 29°44' W 095°17'0 0.0
2017-Dec-13 14:46N 29°44' W 095°17'0 0.0
2017-Dec-13 14:19N 29°44' W 095°17'0 0.0
2017-Dec-13 13:25N 29°44' W 095°17'0 0.0
2017-Dec-13 12:31N 29°44' W 095°17'0 0.0
2017-Dec-13 12:19N 29°44' W 095°17'0 0.0
2017-Dec-13 11:49N 29°44' W 095°17'0 0.0
2017-Dec-13 11:19N 29°44' W 095°17'0 0.0
2017-Dec-13 10:55N 29°44' W 095°17'0 0.0
2017-Dec-13 10:25N 29°44' W 095°17'0 0.0
2017-Dec-13 09:55N 29°44' W 095°17'0 0.0
2017-Dec-13 09:25N 29°44' W 095°17'0 0.0
2017-Dec-13 08:52N 29°44' W 095°17'0 0.0
2017-Dec-13 01:07N 29°44' W 095°17'0 0.0
2017-Dec-13 00:43N 29°44' W 095°17'0 0.0
2017-Dec-13 00:25N 29°44' W 095°17'0 0.0
2017-Dec-12 23:55N 29°44' W 095°17'0 0.0
2017-Dec-12 23:25N 29°44' W 095°17'0 0.0
2017-Dec-12 22:31N 29°44' W 095°17'0 0.0
2017-Dec-12 22:07N 29°44' W 095°17'0 0.0
2017-Dec-12 21:55N 29°44' W 095°17'0 0.0
2017-Dec-12 20:13N 29°44' W 095°17'0 0.0
2017-Dec-12 19:49N 29°44' W 095°17'0 0.0
2017-Dec-12 18:43N 29°44' W 095°17'0 0.0
2017-Dec-12 18:07N 29°44' W 095°17'0 0.0
2017-Dec-12 17:49N 29°44' W 095°17'0 0.0
2017-Dec-12 12:19N 29°44' W 095°17'0 0.0
2017-Dec-12 11:55N 29°44' W 095°17'0 0.0
2017-Dec-12 11:16N 29°44' W 095°17'0 0.0
2017-Dec-12 10:55N 29°44' W 095°17'0 0.0
2017-Dec-12 10:19N 29°44' W 095°17'0 0.0
2017-Dec-12 09:07N 29°44' W 095°17'0 0.0
2017-Dec-12 08:49N 29°44' W 095°17'0 0.0
2017-Dec-12 08:25N 29°44' W 095°17'0 0.0
2017-Dec-12 07:55N 29°44' W 095°17'0 0.0
2017-Dec-12 07:25N 29°44' W 095°17'0 0.0
2017-Dec-12 06:58N 29°44' W 095°17'0 0.0
2017-Dec-12 06:25N 29°44' W 095°17'0 0.0
2017-Dec-12 05:25N 29°44' W 095°17'0 0.0
2017-Dec-12 04:52N 29°44' W 095°17'0 0.0
2017-Dec-12 04:22N 29°44' W 095°17'0 0.0
2017-Dec-12 03:49N 29°44' W 095°17'0 0.0
2017-Dec-12 03:25N 29°44' W 095°17'0 1.1
2017-Dec-12 02:59N 29°44' W 095°17'2 3.1
2017-Dec-12 02:30N 29°43' W 095°15'2 5.0
2017-Dec-12 02:00N 29°44' W 095°12'3 5.2
2017-Dec-12 01:30N 29°44' W 095°09'3 5.9
2017-Dec-12 01:00N 29°45' W 095°06'2 4.3
2017-Dec-12 00:30N 29°44' W 095°04'4 7.8
2017-Dec-12 00:00N 29°42' W 095°00'4 8.9
2017-Dec-11 23:31N 29°38' W 094°58'4 7.1
2017-Dec-11 23:01N 29°35' W 094°56'5 9.9
2017-Dec-11 22:30N 29°31' W 094°53'612.8
2017-Dec-11 22:00N 29°25' W 094°50'  
Track history (hours):
 
Tides and Currents Weather Stations Pressure Air Temp Water Temp Dewpoint Dewpoint Depression Visibility Wind Speed Wind Dir Waves Ship Positions

Koombana Bay

Last reported at 2017-Dec-16 02:40 UTC. Time now 2017-Dec-17 19:47 UTC.
Position N 29°57' W 090°23'.

Length 180 m; draft 7 m.

Type: Cargo ship. MMSI: 371760000.

Date/timePositionNaut miles runAvg speedWind from/ knotsBaromVisibWave heightAir tempDewpointWater temp
2017-Dec-16 02:40N 29°57' W 090°23'1 6.7
2017-Dec-16 02:30N 29°56' W 090°22'229 6.0
2017-Dec-14 12:32N 29°21' W 094°43'114.1
2017-Dec-14 12:29N 29°21' W 094°44'812.5
2017-Dec-14 11:48N 29°27' W 094°50'413.4
2017-Dec-14 11:30N 29°30' W 094°52'612.7
2017-Dec-14 11:00N 29°36' W 094°57'611.6
2017-Dec-14 10:30N 29°41' W 094°59'4 8.1
2017-Dec-14 10:01N 29°44' W 095°02'3 6.5
2017-Dec-14 09:31N 29°45' W 095°06'3 6.3
2017-Dec-14 09:01N 29°44' W 095°09'3 5.3
2017-Dec-14 08:30N 29°44' W 095°12'2 4.9
2017-Dec-14 08:00N 29°43' W 095°15'2 3.8
2017-Dec-14 07:30N 29°44' W 095°17'0 0.0
2017-Dec-14 06:49N 29°44' W 095°17'0 0.0
2017-Dec-14 06:28N 29°44' W 095°17'0 0.0
2017-Dec-14 05:55N 29°44' W 095°17'0 0.0
2017-Dec-14 05:28N 29°44' W 095°17'0 0.0
2017-Dec-14 04:58N 29°44' W 095°17'0 0.0
2017-Dec-14 04:16N 29°44' W 095°17'0 0.0
2017-Dec-14 03:58N 29°44' W 095°17'0 0.0
2017-Dec-14 03:28N 29°44' W 095°17'0 0.0
2017-Dec-14 02:55N 29°44' W 095°17'0 0.0
2017-Dec-14 02:25N 29°44' W 095°17'0 0.0
2017-Dec-14 01:55N 29°44' W 095°17'0 0.0
2017-Dec-14 01:25N 29°44' W 095°17'0 0.0
2017-Dec-14 00:55N 29°44' W 095°17'0 0.0
2017-Dec-14 00:16N 29°44' W 095°17'0 0.0
2017-Dec-13 23:58N 29°44' W 095°17'0 0.0
2017-Dec-13 23:22N 29°44' W 095°17'0 0.0
2017-Dec-13 22:01N 29°44' W 095°17'0 0.0
2017-Dec-13 21:52N 29°44' W 095°17'0 0.0
2017-Dec-13 21:19N 29°44' W 095°17'0 0.0
2017-Dec-13 20:43N 29°44' W 095°17'0 0.0
2017-Dec-13 15:37N 29°44' W 095°17'0 0.0
2017-Dec-13 15:19N 29°44' W 095°17'0 0.0
2017-Dec-13 14:46N 29°44' W 095°17'0 0.0
2017-Dec-13 14:19N 29°44' W 095°17'0 0.0
2017-Dec-13 13:25N 29°44' W 095°17'0 0.0
2017-Dec-13 12:31N 29°44' W 095°17'0 0.0
2017-Dec-13 12:19N 29°44' W 095°17'0 0.0
2017-Dec-13 11:49N 29°44' W 095°17'0 0.0
2017-Dec-13 11:19N 29°44' W 095°17'0 0.0
2017-Dec-13 10:55N 29°44' W 095°17'0 0.0
2017-Dec-13 10:25N 29°44' W 095°17'0 0.0
2017-Dec-13 09:55N 29°44' W 095°17'0 0.0
2017-Dec-13 09:25N 29°44' W 095°17'0 0.0
2017-Dec-13 08:52N 29°44' W 095°17'0 0.0
2017-Dec-13 01:07N 29°44' W 095°17'0 0.0
2017-Dec-13 00:43N 29°44' W 095°17'0 0.0
2017-Dec-13 00:25N 29°44' W 095°17'0 0.0
2017-Dec-12 23:55N 29°44' W 095°17'0 0.0
2017-Dec-12 23:25N 29°44' W 095°17'0 0.0
2017-Dec-12 22:31N 29°44' W 095°17'0 0.0
2017-Dec-12 22:07N 29°44' W 095°17'0 0.0
2017-Dec-12 21:55N 29°44' W 095°17'0 0.0
2017-Dec-12 20:13N 29°44' W 095°17'0 0.0
2017-Dec-12 19:49N 29°44' W 095°17'0 0.0
2017-Dec-12 18:43N 29°44' W 095°17'0 0.0
2017-Dec-12 18:07N 29°44' W 095°17'0 0.0
2017-Dec-12 17:49N 29°44' W 095°17'0 0.0
2017-Dec-12 12:19N 29°44' W 095°17'0 0.0
2017-Dec-12 11:55N 29°44' W 095°17'0 0.0
2017-Dec-12 11:16N 29°44' W 095°17'0 0.0
2017-Dec-12 10:55N 29°44' W 095°17'0 0.0
2017-Dec-12 10:19N 29°44' W 095°17'0 0.0
2017-Dec-12 09:07N 29°44' W 095°17'0 0.0
2017-Dec-12 08:49N 29°44' W 095°17'0 0.0
2017-Dec-12 08:25N 29°44' W 095°17'0 0.0
2017-Dec-12 07:55N 29°44' W 095°17'0 0.0
2017-Dec-12 07:25N 29°44' W 095°17'0 0.0
2017-Dec-12 06:58N 29°44' W 095°17'0 0.0
2017-Dec-12 06:25N 29°44' W 095°17'0 0.0
2017-Dec-12 05:25N 29°44' W 095°17'0 0.0
2017-Dec-12 04:52N 29°44' W 095°17'0 0.0
2017-Dec-12 04:22N 29°44' W 095°17'0 0.0
2017-Dec-12 03:49N 29°44' W 095°17'0 0.0
2017-Dec-12 03:25N 29°44' W 095°17'0 1.1
2017-Dec-12 02:59N 29°44' W 095°17'2 3.1
2017-Dec-12 02:30N 29°43' W 095°15'2 5.0
2017-Dec-12 02:00N 29°44' W 095°12'3 5.2
2017-Dec-12 01:30N 29°44' W 095°09'3 5.9
2017-Dec-12 01:00N 29°45' W 095°06'2 4.3
2017-Dec-12 00:30N 29°44' W 095°04'4 7.8
2017-Dec-12 00:00N 29°42' W 095°00'4 8.9
2017-Dec-11 23:31N 29°38' W 094°58'4 7.1
2017-Dec-11 23:01N 29°35' W 094°56'5 9.9
2017-Dec-11 22:30N 29°31' W 094°53'612.8
2017-Dec-11 22:00N 29°25' W 094°50'  

Dump ship's entire track history